createdAt,value
2022-08-27T00:00:44.893Z,54.22
2022-08-27T00:03:12.411Z,54.84
2022-08-27T00:05:40.042Z,53.97
2022-08-27T00:08:07.767Z,53.68
2022-08-27T00:10:35.244Z,54.41
2022-08-27T00:13:02.657Z,54.72
2022-08-27T00:15:30.004Z,54.84
2022-08-27T00:17:57.470Z,54.43
2022-08-27T00:20:26.030Z,53.55
2022-08-27T00:22:53.422Z,54.94
2022-08-27T00:25:20.982Z,54.64
2022-08-27T00:27:48.204Z,54.25
2022-08-27T00:30:16.654Z,55.02
2022-08-27T00:32:44.351Z,55.05
2022-08-27T00:35:11.975Z,55.12
2022-08-27T00:37:39.173Z,55.42
2022-08-27T00:40:13.504Z,54.48
2022-08-27T00:42:42.501Z,55.09
2022-08-27T00:45:10.213Z,54.81
2022-08-27T00:47:39.772Z,54.38
2022-08-27T00:50:08.799Z,54.86
2022-08-27T00:52:45.325Z,54.72
2022-08-27T00:55:15.060Z,55.26
2022-08-27T00:57:42.802Z,54.48
2022-08-27T01:00:12.050Z,55.06
2022-08-27T01:02:39.329Z,55.32
2022-08-27T01:05:15.429Z,54.73
2022-08-27T01:07:43.497Z,55.28
2022-08-27T01:10:12.865Z,55.41
2022-08-27T01:12:40.078Z,54.71
2022-08-27T01:15:08.719Z,55.29
2022-08-27T01:17:39.045Z,56.34
2022-08-27T01:20:09.378Z,54.64
2022-08-27T01:22:50.358Z,54.27
2022-08-27T01:25:18.007Z,54.49
2022-08-27T01:27:45.450Z,54.62
2022-08-27T01:30:14.793Z,54.91
2022-08-27T01:35:27.553Z,54.59
2022-08-27T01:37:56.972Z,55.55
2022-08-27T01:40:24.639Z,54.77
2022-08-27T01:42:54.337Z,54.94
2022-08-27T01:45:26.819Z,55.38
2022-08-27T01:47:54.278Z,54.53
2022-08-27T01:50:23.532Z,55.79
2022-08-27T01:52:51.095Z,55.03
2022-08-27T01:55:19.562Z,54.16
2022-08-27T01:57:47.117Z,54.90
2022-08-27T02:00:16.431Z,54.54
2022-08-27T02:02:44.568Z,54.48
2022-08-27T02:05:12.200Z,55.52
2022-08-27T02:07:39.640Z,54.67
2022-08-27T02:10:08.452Z,54.37
2022-08-27T02:12:35.655Z,55.29
2022-08-27T02:15:02.944Z,55.50
2022-08-27T02:17:30.457Z,55.48
2022-08-27T02:19:57.675Z,55.25
2022-08-27T02:22:24.899Z,55.60
2022-08-27T02:24:52.427Z,55.81
2022-08-27T02:27:19.835Z,55.46
2022-08-27T02:29:49.760Z,55.56
2022-08-27T02:32:22.439Z,55.52
2022-08-27T02:34:58.962Z,55.53
2022-08-27T02:37:26.584Z,56.79
2022-08-27T02:39:53.851Z,55.75
2022-08-27T02:42:21.181Z,55.76
2022-08-27T02:44:48.674Z,55.40
2022-08-27T02:47:16.861Z,55.80
2022-08-27T02:49:44.492Z,55.77
2022-08-27T02:52:12.719Z,55.48
2022-08-27T02:54:40.624Z,55.41
2022-08-27T02:57:07.881Z,56.11
2022-08-27T02:59:35.499Z,55.39
2022-08-27T03:02:02.785Z,55.48
2022-08-27T03:04:30.120Z,55.57
2022-08-27T03:06:57.876Z,55.38
2022-08-27T03:09:25.168Z,55.65
2022-08-27T03:11:53.631Z,55.53
2022-08-27T03:14:21.158Z,55.30
2022-08-27T03:16:48.422Z,55.04
2022-08-27T03:19:19.872Z,55.46
2022-08-27T03:21:54.821Z,55.72
2022-08-27T03:24:22.291Z,55.87
2022-08-27T03:26:53.824Z,56.17
2022-08-27T03:29:21.616Z,56.17
2022-08-27T03:31:48.906Z,56.17
2022-08-27T03:34:19.790Z,56.30
2022-08-27T03:36:48.979Z,55.99
2022-08-27T03:39:16.168Z,56.45
2022-08-27T03:41:55.459Z,56.59
2022-08-27T03:44:24.011Z,56.68
2022-08-27T03:46:51.690Z,56.48
2022-08-27T03:49:20.442Z,56.81
2022-08-27T03:51:52.401Z,56.87
2022-08-27T03:54:19.612Z,56.42
2022-08-27T03:56:47.092Z,56.59
2022-08-27T03:59:15.828Z,56.58
2022-08-27T04:01:44.379Z,56.60
2022-08-27T04:04:13.142Z,57.57
2022-08-27T04:06:40.762Z,56.34
2022-08-27T04:09:07.996Z,57.58
2022-08-27T04:11:35.473Z,56.91
2022-08-27T04:14:07.595Z,57.69
2022-08-27T04:16:52.584Z,56.87
2022-08-27T04:19:22.869Z,57.55
2022-08-27T04:21:53.019Z,57.29
2022-08-27T04:24:20.228Z,57.57
2022-08-27T04:26:47.902Z,57.27
2022-08-27T04:29:15.385Z,57.48
2022-08-27T04:31:43.291Z,57.08
2022-08-27T04:34:13.178Z,57.21
2022-08-27T04:36:40.610Z,57.39
2022-08-27T04:39:07.821Z,57.58
2022-08-27T04:41:35.104Z,57.71
2022-08-27T04:44:03.731Z,57.56
2022-08-27T04:46:32.359Z,57.53
2022-08-27T04:49:00.714Z,57.77
2022-08-27T04:51:29.078Z,57.43
2022-08-27T04:53:56.714Z,57.34
2022-08-27T04:56:27.403Z,57.48
2022-08-27T04:58:54.631Z,57.76
2022-08-27T05:01:23.006Z,58.17
2022-08-27T05:03:50.534Z,58.34
2022-08-27T05:06:17.836Z,57.95
2022-08-27T05:08:45.212Z,57.97
2022-08-27T05:11:15.156Z,57.94
2022-08-27T05:13:42.877Z,57.53
2022-08-27T05:16:11.567Z,57.33
2022-08-27T05:18:42.207Z,56.88
2022-08-27T05:21:19.389Z,56.89
2022-08-27T05:23:47.683Z,57.32
2022-08-27T05:26:15.162Z,57.36
2022-08-27T05:28:42.394Z,56.71
2022-08-27T05:31:10.597Z,55.79
2022-08-27T05:33:41.255Z,56.48
2022-08-27T05:36:08.905Z,56.48
2022-08-27T05:38:36.409Z,56.21
2022-08-27T05:41:09.175Z,56.04
2022-08-27T05:43:37.136Z,55.47
2022-08-27T05:46:05.826Z,55.39
2022-08-27T05:48:33.863Z,54.87
2022-08-27T05:51:07.402Z,54.92
2022-08-27T05:53:34.633Z,54.77
2022-08-27T05:56:02.109Z,54.97
2022-08-27T05:58:49.401Z,54.53
2022-08-27T06:01:17.517Z,54.00
2022-08-27T06:03:46.512Z,53.43
2022-08-27T06:06:14.456Z,53.45
2022-08-27T06:08:41.679Z,53.06
2022-08-27T06:11:10.259Z,53.05
2022-08-27T06:13:37.641Z,52.87
2022-08-27T06:16:07.258Z,52.65
2022-08-27T06:18:35.199Z,52.45
2022-08-27T06:21:02.383Z,52.20
2022-08-27T06:23:29.603Z,51.84
2022-08-27T06:25:57.332Z,51.06
2022-08-27T06:28:29.607Z,50.41
2022-08-27T06:31:04.215Z,49.54
2022-08-27T06:33:31.443Z,49.16
2022-08-27T06:36:00.246Z,48.98
2022-08-27T06:38:27.642Z,48.33
2022-08-27T06:40:55.887Z,47.31
2022-08-27T06:43:25.161Z,46.29
2022-08-27T06:45:52.876Z,45.45
2022-08-27T06:48:21.386Z,44.43
2022-08-27T06:50:48.879Z,43.19
2022-08-27T06:53:16.423Z,42.37
2022-08-27T06:55:44.714Z,41.88
2022-08-27T06:58:12.758Z,41.25
2022-08-27T07:00:40.210Z,39.44
2022-08-27T07:03:07.400Z,38.81
2022-08-27T07:05:35.642Z,39.95
2022-08-27T07:08:03.359Z,38.89
2022-08-27T07:10:31.949Z,39.58
2022-08-27T07:12:59.921Z,40.15
2022-08-27T07:15:27.266Z,40.00
2022-08-27T07:17:57.113Z,38.89
2022-08-27T07:20:25.405Z,38.22
2022-08-27T07:22:54.347Z,36.79
2022-08-27T07:25:21.621Z,38.56
2022-08-27T07:27:49.396Z,39.39
2022-08-27T07:30:17.170Z,40.67
2022-08-27T07:32:44.975Z,39.36
2022-08-27T07:35:12.723Z,39.86
2022-08-27T07:37:40.336Z,39.34
2022-08-27T07:40:12.332Z,40.46
2022-08-27T07:43:00.189Z,36.00
2022-08-27T07:45:27.720Z,36.21
2022-08-27T07:47:55.191Z,36.91
2022-08-27T07:50:23.578Z,33.64
2022-08-27T07:52:51.357Z,34.92
2022-08-27T07:55:18.839Z,34.14
2022-08-27T07:57:48.043Z,33.69
2022-08-27T08:00:15.542Z,32.41
2022-08-27T08:02:44.978Z,31.39
2022-08-27T08:05:12.739Z,34.56
2022-08-27T08:07:39.925Z,32.56
2022-08-27T08:10:07.617Z,32.43
2022-08-27T08:12:36.147Z,31.64
2022-08-27T08:15:04.019Z,30.10
2022-08-27T08:17:32.517Z,29.98
2022-08-27T08:20:18.463Z,29.32
2022-08-27T08:22:47.766Z,29.87
2022-08-27T08:25:15.528Z,29.03
2022-08-27T08:27:42.709Z,31.75
2022-08-27T08:30:10.816Z,30.30
2022-08-27T08:32:38.431Z,30.31
2022-08-27T08:35:06.334Z,28.69
2022-08-27T08:37:33.650Z,31.25
2022-08-27T08:40:01.163Z,30.62
2022-08-27T08:42:30.159Z,28.87
2022-08-27T08:44:58.046Z,31.09
2022-08-27T08:47:27.205Z,29.94
2022-08-27T08:49:57.343Z,28.76
2022-08-27T08:52:31.571Z,30.51
2022-08-27T08:55:01.610Z,28.85
2022-08-27T08:57:31.097Z,29.63
2022-08-27T09:00:02.518Z,29.55
2022-08-27T09:02:30.149Z,29.00
2022-08-27T09:04:57.499Z,28.89
2022-08-27T09:07:30.573Z,29.58
2022-08-27T09:10:05.875Z,27.31
2022-08-27T09:12:33.526Z,27.66
2022-08-27T09:15:02.146Z,28.95
2022-08-27T09:17:32.622Z,26.53
2022-08-27T09:19:59.845Z,26.11
2022-08-27T09:22:48.861Z,27.66
2022-08-27T09:25:22.157Z,27.70
2022-08-27T09:27:53.517Z,27.25
2022-08-27T09:30:28.590Z,27.40
2022-08-27T09:33:01.477Z,26.32
2022-08-27T09:35:29.434Z,24.86
2022-08-27T09:37:57.806Z,27.99
2022-08-27T09:40:29.733Z,29.82
2022-08-27T09:42:57.549Z,25.75
2022-08-27T09:45:26.798Z,27.41
2022-08-27T09:47:53.951Z,27.56
2022-08-27T09:50:22.328Z,24.65
2022-08-27T09:52:55.182Z,23.92
2022-08-27T09:55:34.668Z,22.62
2022-08-27T09:58:03.649Z,29.74
2022-08-27T10:00:36.396Z,23.33
2022-08-27T10:03:05.192Z,27.89
2022-08-27T10:05:36.493Z,25.33
2022-08-27T10:08:19.822Z,25.53
2022-08-27T10:10:58.619Z,26.05
2022-08-27T10:13:34.306Z,23.19
2022-08-27T10:16:29.528Z,23.89
2022-08-27T10:19:03.021Z,22.17
2022-08-27T10:21:41.928Z,21.72
2022-08-27T10:24:29.150Z,24.12
2022-08-27T10:27:16.125Z,22.78
2022-08-27T10:29:46.547Z,23.70
2022-08-27T10:32:34.118Z,23.48
2022-08-27T10:35:05.000Z,20.45
2022-08-27T10:37:36.801Z,20.77
2022-08-27T10:40:16.943Z,20.74
2022-08-27T10:42:57.617Z,20.49
2022-08-27T10:45:34.852Z,20.49
2022-08-27T10:48:06.990Z,21.50
2022-08-27T10:50:34.470Z,21.15
2022-08-27T10:53:12.116Z,23.34
2022-08-27T10:55:43.456Z,19.86
2022-08-27T10:58:29.150Z,22.38
2022-08-27T11:00:58.725Z,21.50
2022-08-27T11:03:25.992Z,22.94
2022-08-27T11:06:03.883Z,25.79
2022-08-27T11:08:45.027Z,22.87
2022-08-27T11:11:51.742Z,21.14
2022-08-27T11:14:01.192Z,23.91
2022-08-27T11:16:45.638Z,23.84
2022-08-27T11:19:15.266Z,23.84
2022-08-27T11:21:42.720Z,22.12
2022-08-27T11:24:12.890Z,22.58
2022-08-27T11:26:40.167Z,22.57
2022-08-27T11:29:22.239Z,24.31
2022-08-27T11:32:01.434Z,24.10
2022-08-27T11:34:41.146Z,22.95
2022-08-27T11:37:27.919Z,23.74
2022-08-27T11:40:02.598Z,22.76
2022-08-27T11:42:43.951Z,22.36
2022-08-27T11:45:20.626Z,23.21
2022-08-27T11:47:51.644Z,23.53
2022-08-27T11:50:19.962Z,22.98
2022-08-27T11:52:54.865Z,23.49
2022-08-27T11:55:22.267Z,24.27
2022-08-27T11:57:50.532Z,23.01
2022-08-27T12:00:21.032Z,22.29
2022-08-27T12:03:02.333Z,21.91
2022-08-27T12:05:52.984Z,21.12
2022-08-27T12:08:21.831Z,19.94
2022-08-27T12:10:52.444Z,20.82
2022-08-27T12:13:36.097Z,21.40
2022-08-27T12:16:12.765Z,21.93
2022-08-27T12:18:51.619Z,21.67
2022-08-27T12:21:28.450Z,22.71
2022-08-27T12:24:07.776Z,23.26
2022-08-27T12:26:36.061Z,21.70
2022-08-27T12:29:18.289Z,26.58
2022-08-27T12:31:48.333Z,23.18
2022-08-27T12:34:16.006Z,22.52
2022-08-27T12:36:50.198Z,22.31
2022-08-27T12:39:18.730Z,22.40
2022-08-27T12:41:46.711Z,22.63
2022-08-27T12:44:15.987Z,24.88
2022-08-27T12:46:53.393Z,22.51
2022-08-27T12:49:38.949Z,22.33
2022-08-27T12:52:14.079Z,21.96
2022-08-27T12:55:09.032Z,22.23
2022-08-27T12:57:45.288Z,21.85
2022-08-27T13:00:19.141Z,22.13
2022-08-27T13:03:06.981Z,22.76
2022-08-27T13:05:45.347Z,22.39
2022-08-27T13:08:23.276Z,22.89
2022-08-27T13:10:51.058Z,24.39
2022-08-27T13:13:22.469Z,23.09
2022-08-27T13:15:56.957Z,22.76
2022-08-27T13:18:24.605Z,21.53
2022-08-27T13:21:23.358Z,22.49
2022-08-27T13:23:54.204Z,23.05
2022-08-27T13:26:22.458Z,24.27
2022-08-27T13:28:49.768Z,23.34
2022-08-27T13:31:17.272Z,22.39
2022-08-27T13:33:44.508Z,23.85
2022-08-27T13:36:12.377Z,22.04
2022-08-27T13:38:49.333Z,22.24
2022-08-27T13:41:33.826Z,24.61
2022-08-27T13:44:27.703Z,21.61
2022-08-27T13:47:01.207Z,23.14
2022-08-27T13:49:32.373Z,22.89
2022-08-27T13:52:01.779Z,22.19
2022-08-27T13:54:29.741Z,23.57
2022-08-27T13:56:58.613Z,23.10
2022-08-27T13:59:26.774Z,23.06
2022-08-27T14:01:59.228Z,23.52
2022-08-27T14:04:34.201Z,24.97
2022-08-27T14:07:06.537Z,24.44
2022-08-27T14:09:34.019Z,24.29
2022-08-27T14:12:02.132Z,23.70
2022-08-27T14:14:30.469Z,26.05
2022-08-27T14:16:59.264Z,24.29
2022-08-27T14:19:28.022Z,25.85
2022-08-27T14:21:56.015Z,23.04
2022-08-27T14:24:24.043Z,24.40
2022-08-27T14:26:52.066Z,25.38
2022-08-27T14:29:19.619Z,23.11
2022-08-27T14:31:47.439Z,23.51
2022-08-27T14:34:14.811Z,25.12
2022-08-27T14:36:42.134Z,25.00
2022-08-27T14:39:09.884Z,23.49
2022-08-27T14:41:37.687Z,24.26
2022-08-27T14:44:06.195Z,23.40
2022-08-27T14:46:35.985Z,23.05
2022-08-27T14:49:11.503Z,22.15
2022-08-27T14:51:39.362Z,22.19
2022-08-27T14:54:06.768Z,22.53
2022-08-27T14:56:34.008Z,23.37
2022-08-27T14:59:01.497Z,23.16
2022-08-27T15:01:29.462Z,23.44
2022-08-27T15:03:56.787Z,24.18
2022-08-27T15:06:25.178Z,24.14
2022-08-27T15:08:53.666Z,24.05
2022-08-27T15:11:24.957Z,24.08
2022-08-27T15:13:52.722Z,25.87
2022-08-27T15:16:27.286Z,25.22
2022-08-27T15:19:00.965Z,24.32
2022-08-27T15:21:28.934Z,24.51
2022-08-27T15:24:04.002Z,25.35
2022-08-27T15:26:31.674Z,25.50
2022-08-27T15:29:02.787Z,24.32
2022-08-27T15:31:32.999Z,24.03
2022-08-27T15:34:00.510Z,24.19
2022-08-27T15:36:27.825Z,25.13
2022-08-27T15:38:55.276Z,25.60
2022-08-27T15:41:26.126Z,24.63
2022-08-27T15:43:55.858Z,24.51
2022-08-27T15:46:23.507Z,24.34
2022-08-27T15:48:50.801Z,25.84
2022-08-27T15:51:18.278Z,26.06
2022-08-27T15:53:45.775Z,27.00
2022-08-27T15:56:12.969Z,26.47
2022-08-27T15:58:41.248Z,27.37
2022-08-27T16:01:10.205Z,28.40
2022-08-27T16:03:37.699Z,29.37
2022-08-27T16:06:05.380Z,28.03
2022-08-27T16:08:36.636Z,26.26
2022-08-27T16:11:06.855Z,27.96
2022-08-27T16:13:34.415Z,27.89
2022-08-27T16:16:24.285Z,27.72
2022-08-27T16:18:51.783Z,27.36
2022-08-27T16:21:19.278Z,29.83
2022-08-27T16:23:46.661Z,29.64
2022-08-27T16:26:14.143Z,30.87
2022-08-27T16:28:41.292Z,31.83
2022-08-27T16:31:12.157Z,31.98
2022-08-27T16:33:40.980Z,33.85
2022-08-27T16:36:08.211Z,34.57
2022-08-27T16:38:36.107Z,34.77
2022-08-27T16:41:03.691Z,35.36
2022-08-27T16:43:30.859Z,36.11
2022-08-27T16:45:59.579Z,36.50
2022-08-27T16:48:46.261Z,36.89
2022-08-27T16:51:17.711Z,37.16
2022-08-27T16:53:47.454Z,37.23
2022-08-27T16:56:16.989Z,37.02
2022-08-27T16:58:49.740Z,36.23
2022-08-27T17:01:18.192Z,37.06
2022-08-27T17:04:07.662Z,39.04
2022-08-27T17:06:34.580Z,39.22
2022-08-27T17:09:05.323Z,39.52
2022-08-27T17:11:32.902Z,39.54
2022-08-27T17:14:02.329Z,38.19
2022-08-27T17:16:30.320Z,37.60
2022-08-27T17:18:58.438Z,37.77
2022-08-27T17:21:29.686Z,37.47
2022-08-27T17:23:59.430Z,37.44
2022-08-27T17:26:27.187Z,37.21
2022-08-27T17:28:54.480Z,37.38
2022-08-27T17:31:27.900Z,37.72
2022-08-27T17:33:58.137Z,37.90
2022-08-27T17:36:27.128Z,37.42
2022-08-27T17:38:56.025Z,37.56
2022-08-27T17:41:23.522Z,40.04
2022-08-27T17:43:50.674Z,40.94
2022-08-27T17:46:17.943Z,39.82
2022-08-27T17:48:45.379Z,40.03
2022-08-27T17:51:12.669Z,39.59
2022-08-27T17:53:48.009Z,39.10
2022-08-27T17:56:16.209Z,39.55
2022-08-27T17:58:44.837Z,40.39
2022-08-27T18:01:12.093Z,40.72
2022-08-27T18:03:44.440Z,40.31
2022-08-27T18:06:15.711Z,40.63
2022-08-27T18:08:43.176Z,40.75
2022-08-27T18:11:11.150Z,41.97
2022-08-27T18:13:38.491Z,42.09
2022-08-27T18:16:06.508Z,42.31
2022-08-27T18:18:35.168Z,42.41
2022-08-27T18:21:02.381Z,42.19
2022-08-27T18:23:30.308Z,42.23
2022-08-27T18:25:57.876Z,41.54
2022-08-27T18:28:25.357Z,41.73
2022-08-27T18:30:52.836Z,42.34
2022-08-27T18:33:20.037Z,42.13
2022-08-27T18:35:47.966Z,42.06
2022-08-27T18:38:16.179Z,42.03
2022-08-27T18:40:48.182Z,42.80
2022-08-27T18:43:16.428Z,42.48
2022-08-27T18:45:45.031Z,42.64
2022-08-27T18:48:19.381Z,43.32
2022-08-27T18:50:50.236Z,42.77
2022-08-27T18:53:20.125Z,42.20
2022-08-27T18:55:57.648Z,42.84
2022-08-27T18:58:25.703Z,43.55
2022-08-27T19:00:55.051Z,44.08
2022-08-27T19:03:28.253Z,44.72
2022-08-27T19:05:56.449Z,45.46
2022-08-27T19:08:25.444Z,44.79
2022-08-27T19:10:53.222Z,43.25
2022-08-27T19:13:21.450Z,42.96
2022-08-27T19:15:54.024Z,43.81
2022-08-27T19:18:25.899Z,42.83
2022-08-27T19:20:56.229Z,44.23
2022-08-27T19:23:24.529Z,43.34
2022-08-27T19:25:52.378Z,42.92
2022-08-27T19:28:25.263Z,44.35
2022-08-27T19:30:53.683Z,43.14
2022-08-27T19:33:23.722Z,42.01
2022-08-27T19:35:57.237Z,42.61
2022-08-27T19:38:25.373Z,42.17
2022-08-27T19:40:56.923Z,41.54
2022-08-27T19:43:24.952Z,42.28
2022-08-27T19:45:54.900Z,43.05
2022-08-27T19:48:22.576Z,43.50
2022-08-27T19:50:52.343Z,44.28
2022-08-27T19:53:20.075Z,44.66
2022-08-27T19:55:48.427Z,44.03
2022-08-27T19:58:17.702Z,44.71
2022-08-27T20:00:45.951Z,45.47
2022-08-27T20:03:15.854Z,44.40
2022-08-27T20:05:43.972Z,44.49
2022-08-27T20:08:12.878Z,44.49
2022-08-27T20:10:41.159Z,45.35
2022-08-27T20:13:08.574Z,45.06
2022-08-27T20:15:39.896Z,46.14
2022-08-27T20:18:10.334Z,45.30
2022-08-27T20:20:37.635Z,46.15
2022-08-27T20:23:05.315Z,46.06
2022-08-27T20:25:33.477Z,45.95
2022-08-27T20:28:16.269Z,46.10
2022-08-27T20:30:49.037Z,46.24
2022-08-27T20:33:16.832Z,46.94
2022-08-27T20:35:44.091Z,47.32
2022-08-27T20:38:11.719Z,47.68
2022-08-27T20:40:39.135Z,46.53
2022-08-27T20:43:06.328Z,46.26
2022-08-27T20:45:37.674Z,46.89
2022-08-27T20:48:05.471Z,47.14
2022-08-27T20:50:32.870Z,47.13
2022-08-27T20:53:00.832Z,47.35
2022-08-27T20:55:28.278Z,47.02
2022-08-27T20:58:14.105Z,47.47
2022-08-27T21:00:42.259Z,47.76
2022-08-27T21:03:10.041Z,48.31
2022-08-27T21:05:37.498Z,48.00
2022-08-27T21:08:05.487Z,48.80
2022-08-27T21:10:32.833Z,48.76
2022-08-27T21:13:03.371Z,48.53
2022-08-27T21:15:32.392Z,48.25
2022-08-27T21:17:59.570Z,49.20
2022-08-27T21:20:26.777Z,49.06
2022-08-27T21:22:57.715Z,48.96
2022-08-27T21:25:25.389Z,49.04
2022-08-27T21:27:52.774Z,49.08
2022-08-27T21:30:21.421Z,49.71
2022-08-27T21:32:48.865Z,49.92
2022-08-27T21:35:16.365Z,49.42
2022-08-27T21:37:43.811Z,49.48
2022-08-27T21:40:11.207Z,49.60
2022-08-27T21:42:38.401Z,49.83
2022-08-27T21:45:06.093Z,49.49
2022-08-27T21:47:33.265Z,49.82
2022-08-27T21:50:00.723Z,50.71
2022-08-27T21:52:29.573Z,50.49
2022-08-27T21:54:57.043Z,50.23
2022-08-27T21:57:24.225Z,50.01
2022-08-27T21:59:51.612Z,50.30
2022-08-27T22:05:08.584Z,49.58
2022-08-27T22:07:35.756Z,49.22
2022-08-27T22:10:02.982Z,49.41
2022-08-27T22:12:30.418Z,49.67
2022-08-27T22:14:57.555Z,49.86
2022-08-27T22:17:24.744Z,49.63
2022-08-27T22:19:52.167Z,50.22
2022-08-27T22:22:19.347Z,50.85
2022-08-27T22:24:46.525Z,50.77
2022-08-27T22:27:13.951Z,51.09
2022-08-27T22:29:41.092Z,51.66
2022-08-27T22:32:08.257Z,51.31
2022-08-27T22:34:35.790Z,51.42
2022-08-27T22:37:03.326Z,50.93
2022-08-27T22:39:30.743Z,50.67
2022-08-27T22:41:58.449Z,50.91
2022-08-27T22:44:29.318Z,51.00
2022-08-27T22:46:56.753Z,51.31
2022-08-27T22:49:24.346Z,51.50
2022-08-27T22:51:51.520Z,51.41
2022-08-27T22:54:18.896Z,51.41
2022-08-27T22:56:46.338Z,51.15
2022-08-27T22:59:13.622Z,51.73
2022-08-27T23:01:40.804Z,51.45
2022-08-27T23:04:08.434Z,52.07
2022-08-27T23:06:35.688Z,51.82
2022-08-27T23:09:04.210Z,51.93
2022-08-27T23:11:31.894Z,51.34
2022-08-27T23:13:59.516Z,51.68
2022-08-27T23:16:27.229Z,52.41
2022-08-27T23:18:54.733Z,52.27
2022-08-27T23:21:21.953Z,52.20
2022-08-27T23:23:49.099Z,52.85
2022-08-27T23:26:35.019Z,52.47
2022-08-27T23:29:04.468Z,52.63
2022-08-27T23:31:31.967Z,52.94
2022-08-27T23:33:59.867Z,51.78
2022-08-27T23:36:29.305Z,52.70
2022-08-27T23:38:58.367Z,53.22
2022-08-27T23:41:26.433Z,51.13
2022-08-27T23:43:54.294Z,47.75
2022-08-27T23:46:21.761Z,46.20
2022-08-27T23:48:48.936Z,46.23
2022-08-27T23:51:16.075Z,48.72
2022-08-27T23:53:43.505Z,50.59
2022-08-27T23:56:11.029Z,50.35
2022-08-27T23:58:38.252Z,51.29
